Terminal Aerodrome Forecast
Issued by NWS Greer, SC

Home | Current Version | Previous Version | Text Only | Print | Product List | Glossary On
Versions: 1 2 3 4 5 6 7 8 9 10 11 12 13 14 15 16
107
FTUS42 KGSP 122333
TAFGSP
TAF
KGSP 122333Z 1300/1324 35003KT P6SM SCT045
     FM130400 29007KT P6SM FEW029
     FM130800 32007KT P6SM FEW150
     FM131500 32012KT P6SM FEW150
     FM132300 36006KT P6SM SKC=

USA.gov is the U.S. government's official web portal to all federal, state and local government web resources and services.